Time;durP1;ratioP1;P1;durP2;ratioP2;P2;SDS_P1;SDS_P2;PMS_P1;PMS_P2;Temp;Humidity;BMP_temperature;BMP_pressure;BME280_temperature;BME280_humidity;BME280_pressure;Samples;Min_cycle;Max_cycle;Signal;HPM_P1;HPM_P2
2022/01/08 00:00:26;;;;;;;11.50;4.43;;;3.10;99.90;;;;;;5090724;27;20040;-87
2022/01/08 00:02:52;;;;;;;7.55;4.20;;;3.10;99.90;;;;;;5088703;28;20024;-87
2022/01/08 00:05:18;;;;;;;6.97;3.55;;;3.10;99.90;;;;;;5074152;28;20046;-87
2022/01/08 00:07:45;;;;;;;9.20;4.60;;;3.10;99.90;;;;;;5076191;28;20036;-87
2022/01/08 00:10:11;;;;;;;8.05;3.63;;;3.10;99.90;;;;;;5091917;28;20228;-87
2022/01/08 00:12:37;;;;;;;8.13;4.50;;;3.10;99.90;;;;;;5088580;27;20729;-86
2022/01/08 00:15:05;;;;;;;7.70;4.25;;;3.10;99.90;;;;;;5094400;27;20035;-87
2022/01/08 00:17:31;;;;;;;13.38;4.55;;;3.00;99.90;;;;;;5089479;27;20059;-87
2022/01/08 00:19:57;;;;;;;10.80;4.53;;;3.00;99.90;;;;;;5083819;28;20063;-87
2022/01/08 00:22:22;;;;;;;7.25;4.40;;;3.00;99.90;;;;;;5074618;28;20032;-87
2022/01/08 00:24:52;;;;;;;11.65;4.43;;;3.00;99.90;;;;;;5079566;27;20027;-87
2022/01/08 00:27:18;;;;;;;10.35;3.97;;;3.00;99.90;;;;;;5079879;28;20131;-87
2022/01/08 00:29:44;;;;;;;7.40;4.13;;;3.00;99.90;;;;;;5109923;27;20054;-87
2022/01/08 00:32:10;;;;;;;13.48;5.35;;;3.00;99.90;;;;;;5091172;28;20578;-87
2022/01/08 00:34:36;;;;;;;9.13;4.35;;;2.90;99.90;;;;;;5076099;28;20415;-87
2022/01/08 00:37:02;;;;;;;11.70;4.60;;;2.90;99.90;;;;;;5111560;27;20034;-87
2022/01/08 00:39:27;;;;;;;8.32;4.20;;;2.90;99.90;;;;;;5079609;27;20451;-87
2022/01/08 00:41:53;;;;;;;8.40;4.35;;;2.90;99.90;;;;;;5111682;27;20074;-87
2022/01/08 00:44:19;;;;;;;11.48;4.60;;;2.90;99.90;;;;;;5076105;28;20138;-87
2022/01/08 00:46:45;;;;;;;8.27;4.03;;;2.90;99.90;;;;;;5071433;28;20059;-87
2022/01/08 00:49:11;;;;;;;10.75;4.15;;;3.00;99.90;;;;;;5078569;28;20046;-87
2022/01/08 00:51:36;;;;;;;13.05;4.72;;;3.00;99.90;;;;;;5071219;28;20042;-88
2022/01/08 00:54:02;;;;;;;15.13;4.30;;;3.00;99.90;;;;;;5074996;28;20067;-87
2022/01/08 00:56:27;;;;;;;8.50;4.40;;;3.00;99.90;;;;;;5107395;28;20443;-87
2022/01/08 00:58:53;;;;;;;9.20;3.90;;;3.00;99.90;;;;;;5079063;28;20653;-86
2022/01/08 01:01:19;;;;;;;9.00;3.47;;;3.00;99.90;;;;;;5096647;27;20063;-87
2022/01/08 01:03:44;;;;;;;9.02;3.75;;;3.00;99.90;;;;;;5080772;28;20031;-87
2022/01/08 01:06:10;;;;;;;12.48;4.00;;;3.00;99.90;;;;;;5077327;28;20039;-87
2022/01/08 01:08:35;;;;;;;9.02;3.90;;;2.90;99.90;;;;;;5083453;27;20464;-87
2022/01/08 01:11:01;;;;;;;12.13;3.97;;;2.90;99.90;;;;;;5098552;28;20093;-87
2022/01/08 01:13:27;;;;;;;9.20;3.85;;;2.90;99.90;;;;;;5082487;27;20046;-87
2022/01/08 01:15:53;;;;;;;10.35;4.45;;;2.90;99.90;;;;;;5099034;27;20031;-87
2022/01/08 01:18:18;;;;;;;10.93;4.90;;;2.80;99.90;;;;;;5095150;27;20024;-87
2022/01/08 01:20:44;;;;;;;9.68;4.35;;;2.80;99.90;;;;;;5094752;28;20080;-87
2022/01/08 01:23:15;;;;;;;7.85;4.50;;;2.90;99.90;;;;;;5091371;28;20380;-87
2022/01/08 01:25:54;;;;;;;9.93;5.15;;;2.80;99.90;;;;;;5084536;28;20035;-87
2022/01/08 01:41:13;;;;;;;13.70;5.60;;;2.80;99.90;;;;;;5094678;28;20488;-87
2022/01/08 01:47:04;;;;;;;15.27;6.07;;;2.80;99.90;;;;;;5089809;27;20043;-87
2022/01/08 01:49:35;;;;;;;13.88;6.35;;;2.80;99.90;;;;;;5078629;27;20497;-87
2022/01/08 01:52:03;;;;;;;14.00;6.97;;;2.80;99.90;;;;;;5081651;27;20054;-87
2022/01/08 01:54:30;;;;;;;13.68;6.38;;;2.80;99.90;;;;;;5100450;27;20066;-86
2022/01/08 01:56:57;;;;;;;12.30;7.05;;;2.80;99.90;;;;;;5101669;27;20043;-86
2022/01/08 01:59:24;;;;;;;13.65;7.00;;;2.70;99.90;;;;;;5077940;28;20035;-86
2022/01/08 02:01:50;;;;;;;13.18;7.45;;;2.70;99.90;;;;;;5093481;27;20032;-86
2022/01/08 02:04:16;;;;;;;16.10;7.90;;;2.70;99.90;;;;;;5092962;28;20378;-86
2022/01/08 02:06:41;;;;;;;14.77;7.75;;;2.70;99.90;;;;;;5112995;27;20027;-86
2022/01/08 02:09:07;;;;;;;17.08;8.13;;;2.80;99.90;;;;;;5100168;27;20076;-86
2022/01/08 02:11:33;;;;;;;20.23;8.77;;;2.80;99.90;;;;;;5077643;28;20032;-86
2022/01/08 02:14:05;;;;;;;24.58;8.70;;;2.80;99.90;;;;;;5072960;28;20046;-86
2022/01/08 02:16:31;;;;;;;14.57;7.38;;;2.80;99.90;;;;;;5085416;28;20051;-86
2022/01/08 02:18:57;;;;;;;16.80;8.45;;;2.80;99.90;;;;;;5102913;28;20038;-86
2022/01/08 02:21:24;;;;;;;17.77;8.52;;;2.80;99.90;;;;;;5070484;27;20400;-86
2022/01/08 02:23:50;;;;;;;15.38;8.43;;;2.80;99.90;;;;;;5105986;27;20070;-86
2022/01/08 02:26:16;;;;;;;16.77;8.60;;;2.90;99.90;;;;;;5089853;28;20028;-86
2022/01/08 02:28:41;;;;;;;15.13;7.88;;;2.90;99.90;;;;;;5071015;28;20047;-86
2022/01/08 02:31:08;;;;;;;17.30;8.50;;;2.90;99.90;;;;;;5093828;28;20496;-86
2022/01/08 02:33:34;;;;;;;18.38;9.45;;;2.90;99.90;;;;;;5085874;27;20493;-86
2022/01/08 02:36:05;;;;;;;18.05;7.95;;;2.90;99.90;;;;;;5073756;27;20039;-86
2022/01/08 02:38:31;;;;;;;18.55;8.65;;;2.90;99.90;;;;;;5094550;27;20067;-86
2022/01/08 02:41:01;;;;;;;16.38;8.02;;;2.90;99.90;;;;;;5079133;27;20958;-86
2022/01/08 02:43:28;;;;;;;12.80;7.63;;;2.90;99.90;;;;;;5076135;27;20038;-87
2022/01/08 02:45:54;;;;;;;21.17;9.45;;;2.80;99.90;;;;;;5078267;27;20105;-86
2022/01/08 02:48:20;;;;;;;20.05;7.38;;;2.80;99.90;;;;;;5112711;27;20043;-86
2022/01/08 02:50:46;;;;;;;19.90;8.77;;;2.80;99.90;;;;;;5079661;27;20063;-86
2022/01/08 02:53:12;;;;;;;14.77;7.95;;;2.70;99.90;;;;;;5087811;27;20051;-86
2022/01/08 02:55:38;;;;;;;17.48;8.07;;;2.70;99.90;;;;;;5091296;28;20036;-86
2022/01/08 02:58:03;;;;;;;16.67;7.93;;;2.70;99.90;;;;;;5101419;27;20062;-86
2022/01/08 03:00:29;;;;;;;13.02;7.43;;;2.70;99.90;;;;;;5100731;27;20479;-86
2022/01/08 03:02:55;;;;;;;14.80;7.85;;;2.70;99.90;;;;;;5078193;27;20031;-86
2022/01/08 03:05:21;;;;;;;14.63;8.20;;;2.60;99.90;;;;;;5076494;28;20032;-86
2022/01/08 03:07:47;;;;;;;15.77;7.50;;;2.60;99.90;;;;;;5076938;27;20139;-85
2022/01/08 03:10:16;;;;;;;13.95;7.40;;;2.60;99.90;;;;;;5075126;28;20054;-86
2022/01/08 03:12:42;;;;;;;16.60;8.02;;;2.60;99.90;;;;;;5071974;28;20040;-85
2022/01/08 03:15:13;;;;;;;15.05;7.00;;;2.60;99.90;;;;;;5072349;28;20077;-86
2022/01/08 03:17:39;;;;;;;13.07;7.10;;;2.60;99.90;;;;;;5090428;28;20043;-85
2022/01/08 03:20:10;;;;;;;14.98;7.25;;;2.60;99.90;;;;;;5107962;28;20392;-86
2022/01/08 03:22:37;;;;;;;22.27;9.30;;;2.50;99.90;;;;;;5076602;28;20097;-86
2022/01/08 03:25:04;;;;;;;15.10;8.35;;;2.50;99.90;;;;;;5078346;27;20130;-86
2022/01/08 03:27:29;;;;;;;16.13;8.18;;;2.50;99.90;;;;;;5075422;27;20043;-86
2022/01/08 03:29:55;;;;;;;12.93;7.53;;;2.50;99.90;;;;;;5072907;28;20046;-85
2022/01/08 03:32:21;;;;;;;16.63;8.10;;;2.50;99.90;;;;;;5077083;28;20408;-86
2022/01/08 03:34:46;;;;;;;15.48;7.20;;;2.50;99.90;;;;;;5092941;28;20481;-86
2022/01/08 03:37:13;;;;;;;13.30;7.40;;;2.50;99.90;;;;;;5076168;28;20039;-86
2022/01/08 03:39:38;;;;;;;12.90;6.80;;;2.50;99.90;;;;;;5077690;28;20043;-86
2022/01/08 03:42:04;;;;;;;13.52;6.93;;;2.50;99.90;;;;;;5077561;28;20435;-86
2022/01/08 03:44:30;;;;;;;16.50;7.30;;;2.50;99.90;;;;;;5107666;27;20488;-86
2022/01/08 03:47:11;;;;;;;15.20;6.63;;;2.40;99.90;;;;;;5076161;28;20408;-86
2022/01/08 03:49:36;;;;;;;10.73;6.68;;;2.40;99.90;;;;;;5078666;27;20039;-86
2022/01/08 03:52:03;;;;;;;14.10;6.82;;;2.40;99.90;;;;;;5092183;28;20077;-86
2022/01/08 03:54:28;;;;;;;13.30;6.72;;;2.40;99.90;;;;;;5072217;28;20546;-86
2022/01/08 03:56:54;;;;;;;11.55;5.90;;;2.30;99.90;;;;;;5094793;27;20031;-86
2022/01/08 03:59:19;;;;;;;13.38;6.20;;;2.30;99.90;;;;;;5076865;27;20110;-86
2022/01/08 04:01:45;;;;;;;14.50;6.55;;;2.30;99.90;;;;;;5074845;28;20031;-86
2022/01/08 04:04:11;;;;;;;13.77;6.18;;;2.30;99.90;;;;;;5094913;27;20586;-86
2022/01/08 04:06:36;;;;;;;11.27;6.03;;;2.30;99.90;;;;;;5087241;28;20072;-86
2022/01/08 04:09:03;;;;;;;14.23;6.22;;;2.30;99.90;;;;;;5072287;28;20032;-86
2022/01/08 04:11:28;;;;;;;11.77;5.45;;;2.30;99.90;;;;;;5087969;27;20040;-86
2022/01/08 04:13:55;;;;;;;11.15;4.72;;;2.30;99.90;;;;;;5074610;28;20038;-86
2022/01/08 04:16:29;;;;;;;10.73;5.18;;;2.30;99.90;;;;;;5074071;27;20610;-86
2022/01/08 04:18:55;;;;;;;10.50;5.10;;;2.30;99.90;;;;;;5078128;27;20110;-86
2022/01/08 04:23:53;;;;;;;8.25;4.55;;;2.40;99.90;;;;;;5097403;27;20027;-86
2022/01/08 04:26:21;;;;;;;9.60;4.35;;;2.30;99.90;;;;;;5096778;28;20027;-86
2022/01/08 04:28:48;;;;;;;13.93;5.18;;;2.40;99.90;;;;;;5080087;27;20035;-86
2022/01/08 04:31:14;;;;;;;7.72;4.55;;;2.40;99.90;;;;;;5080038;27;20038;-86
2022/01/08 04:33:40;;;;;;;11.10;4.90;;;2.40;99.90;;;;;;5102774;27;20039;-86
2022/01/08 04:36:05;;;;;;;10.32;4.60;;;2.40;99.90;;;;;;5096628;28;20035;-86
2022/01/08 04:38:32;;;;;;;10.77;4.97;;;2.40;99.90;;;;;;5095131;28;20043;-86
2022/01/08 04:40:58;;;;;;;13.98;5.13;;;2.40;99.90;;;;;;5073313;28;20032;-86
2022/01/08 04:43:23;;;;;;;15.15;4.85;;;2.40;99.90;;;;;;5098994;28;20802;-86
2022/01/08 04:45:51;;;;;;;10.75;5.10;;;2.40;99.90;;;;;;5086449;27;20031;-86
2022/01/08 04:48:16;;;;;;;11.95;4.97;;;2.40;99.90;;;;;;5095972;28;20081;-85
2022/01/08 04:50:42;;;;;;;11.75;5.55;;;2.40;99.90;;;;;;5079243;28;20063;-86
2022/01/08 04:53:07;;;;;;;15.00;5.72;;;2.40;99.90;;;;;;5091655;28;20035;-85
2022/01/08 04:55:33;;;;;;;13.80;5.45;;;2.40;99.90;;;;;;5080478;28;20424;-86
2022/01/08 04:57:59;;;;;;;13.23;6.07;;;2.40;99.90;;;;;;5099723;28;20032;-85
2022/01/08 05:00:24;;;;;;;15.80;6.15;;;2.40;99.90;;;;;;5094461;28;20035;-86
2022/01/08 05:02:50;;;;;;;12.55;6.45;;;2.40;99.90;;;;;;5081179;28;20375;-86
2022/01/08 05:05:16;;;;;;;15.82;6.57;;;2.40;99.90;;;;;;5071350;28;20404;-86
2022/01/08 05:07:42;;;;;;;17.08;6.60;;;2.30;99.90;;;;;;5108819;28;20130;-86
2022/01/08 05:10:08;;;;;;;13.23;6.30;;;2.30;99.90;;;;;;5092822;28;20050;-86
2022/01/08 05:12:34;;;;;;;14.18;6.60;;;2.30;99.90;;;;;;5103484;28;20058;-86
2022/01/08 05:15:01;;;;;;;12.85;6.18;;;2.30;99.90;;;;;;5092529;28;20074;-86
2022/01/08 05:17:32;;;;;;;15.07;6.50;;;2.30;99.90;;;;;;5079889;28;20551;-86
2022/01/08 05:20:01;;;;;;;17.05;6.90;;;2.40;99.90;;;;;;5077990;28;20493;-86
2022/01/08 05:22:29;;;;;;;14.23;7.05;;;2.40;99.90;;;;;;5100312;28;20091;-86
2022/01/08 05:24:56;;;;;;;17.60;7.03;;;2.40;99.90;;;;;;5097040;28;20035;-85
2022/01/08 05:27:22;;;;;;;18.52;7.78;;;2.40;99.90;;;;;;5089946;28;20039;-86
2022/01/08 05:29:50;;;;;;;19.15;7.38;;;2.40;99.90;;;;;;5096075;28;20385;-85
2022/01/08 05:32:19;;;;;;;17.45;6.93;;;2.40;99.90;;;;;;5101274;28;20049;-86
2022/01/08 05:34:45;;;;;;;19.17;7.00;;;2.40;99.90;;;;;;5075649;28;20529;-86
2022/01/08 05:37:11;;;;;;;15.15;7.97;;;2.40;99.90;;;;;;5097509;28;20035;-86
2022/01/08 05:39:36;;;;;;;14.55;6.35;;;2.40;99.90;;;;;;5081133;28;20055;-86
2022/01/08 05:42:02;;;;;;;14.90;7.03;;;2.40;99.90;;;;;;5094151;28;20074;-85
2022/01/08 05:44:28;;;;;;;16.17;7.03;;;2.40;99.90;;;;;;5113118;28;20114;-86
2022/01/08 05:46:54;;;;;;;16.02;6.22;;;2.40;99.90;;;;;;5089730;27;20119;-86
2022/01/08 05:49:19;;;;;;;19.33;7.47;;;2.40;99.90;;;;;;5095865;28;20043;-86
2022/01/08 05:51:45;;;;;;;20.17;7.35;;;2.30;99.90;;;;;;5106392;28;20035;-86
2022/01/08 05:54:10;;;;;;;18.42;6.55;;;2.30;99.90;;;;;;5072259;28;20091;-86
2022/01/08 05:56:36;;;;;;;15.95;7.70;;;2.30;99.90;;;;;;5069830;28;20064;-85
2022/01/08 05:59:02;;;;;;;20.20;6.82;;;2.30;99.90;;;;;;5100284;28;20039;-86
2022/01/08 06:01:27;;;;;;;16.77;7.05;;;2.20;99.90;;;;;;5089741;28;20071;-86
2022/01/08 06:03:53;;;;;;;19.00;7.30;;;2.20;99.90;;;;;;5066612;28;20050;-86
2022/01/08 06:06:19;;;;;;;15.85;6.90;;;2.20;99.90;;;;;;5080049;28;20039;-85
2022/01/08 06:08:44;;;;;;;11.93;6.43;;;2.20;99.90;;;;;;5090521;28;20047;-85
2022/01/08 06:11:10;;;;;;;17.08;7.38;;;2.20;99.90;;;;;;5125509;27;20232;-85
2022/01/08 06:13:36;;;;;;;22.35;7.65;;;2.20;99.90;;;;;;5087567;27;20752;-86
2022/01/08 06:16:01;;;;;;;13.15;6.10;;;2.20;99.90;;;;;;5105103;27;20165;-85
2022/01/08 06:18:27;;;;;;;12.68;6.80;;;2.20;99.90;;;;;;5093570;27;20408;-85
2022/01/08 06:20:55;;;;;;;10.52;5.25;;;2.20;99.90;;;;;;5096296;27;20058;-86
2022/01/08 06:23:21;;;;;;;12.10;5.50;;;2.20;99.90;;;;;;5082685;27;20041;-86
2022/01/08 06:25:47;;;;;;;14.38;5.90;;;2.20;99.90;;;;;;5083714;27;20076;-86
2022/01/08 06:28:12;;;;;;;13.85;5.95;;;2.20;99.90;;;;;;5087928;27;20047;-85
2022/01/08 06:30:38;;;;;;;12.52;5.07;;;2.20;99.90;;;;;;5089382;27;20544;-86
2022/01/08 06:33:04;;;;;;;13.75;6.10;;;2.20;99.90;;;;;;5078694;28;20168;-86
2022/01/08 06:35:29;;;;;;;16.80;5.45;;;2.20;99.90;;;;;;5076311;27;20481;-85
2022/01/08 06:37:55;;;;;;;14.40;5.57;;;2.10;99.90;;;;;;5098330;27;20047;-86
2022/01/08 06:40:21;;;;;;;17.45;5.22;;;2.10;99.90;;;;;;5104744;27;20040;-86
2022/01/08 06:42:46;;;;;;;11.25;5.50;;;2.10;99.90;;;;;;5083966;27;20035;-85
2022/01/08 06:45:12;;;;;;;13.95;5.28;;;2.10;99.90;;;;;;5091016;27;20039;-86
2022/01/08 06:47:38;;;;;;;13.80;5.50;;;2.10;99.90;;;;;;5062201;27;20100;-85
2022/01/08 06:50:04;;;;;;;9.18;5.03;;;2.10;99.90;;;;;;5104048;27;20051;-86
2022/01/08 06:52:32;;;;;;;14.88;5.82;;;2.10;99.90;;;;;;5099289;27;20031;-86
2022/01/08 06:54:58;;;;;;;13.10;5.50;;;2.10;99.90;;;;;;5089162;28;20493;-86
2022/01/08 06:57:23;;;;;;;11.90;4.80;;;2.10;99.90;;;;;;5112419;28;20046;-86
2022/01/08 06:59:49;;;;;;;12.70;5.30;;;2.10;99.90;;;;;;5087270;27;20427;-85
2022/01/08 07:02:15;;;;;;;9.73;4.97;;;2.10;99.90;;;;;;5104689;27;20426;-85
2022/01/08 07:04:40;;;;;;;14.05;5.72;;;2.10;99.90;;;;;;5075218;28;20047;-85
2022/01/08 07:07:06;;;;;;;9.85;5.05;;;2.10;99.90;;;;;;5077443;28;20039;-85
2022/01/08 07:09:31;;;;;;;13.35;5.20;;;2.10;99.90;;;;;;5074906;28;20122;-85
2022/01/08 07:11:57;;;;;;;16.73;5.28;;;2.10;99.90;;;;;;5097062;27;20722;-86
2022/01/08 07:14:22;;;;;;;14.15;5.68;;;2.10;99.90;;;;;;5098590;27;20067;-86
2022/01/08 07:16:49;;;;;;;12.77;5.65;;;2.10;99.90;;;;;;5101771;27;20032;-86
2022/01/08 07:19:15;;;;;;;13.15;5.55;;;2.10;99.90;;;;;;5075920;27;20028;-85
2022/01/08 07:21:40;;;;;;;20.45;5.15;;;2.10;99.90;;;;;;5098404;27;20069;-86
2022/01/08 07:24:06;;;;;;;12.73;5.15;;;2.10;99.90;;;;;;5076383;27;20040;-86
2022/01/08 07:26:31;;;;;;;17.23;5.72;;;2.10;99.90;;;;;;5079541;27;20044;-86
2022/01/08 07:28:57;;;;;;;9.00;4.38;;;2.10;99.90;;;;;;5111801;27;20038;-86
2022/01/08 07:31:23;;;;;;;13.77;5.68;;;2.00;99.90;;;;;;5079437;27;20081;-85
2022/01/08 07:33:49;;;;;;;13.23;6.03;;;2.10;99.90;;;;;;5103504;27;20038;-86
2022/01/08 07:36:19;;;;;;;11.05;5.22;;;2.10;99.90;;;;;;5084035;27;20039;-85
2022/01/08 07:38:44;;;;;;;13.93;5.10;;;2.00;99.90;;;;;;5080225;28;20055;-86
2022/01/08 07:41:10;;;;;;;15.57;5.68;;;2.00;99.90;;;;;;5090655;28;20385;-86
2022/01/08 07:43:36;;;;;;;18.30;5.93;;;2.00;99.90;;;;;;5095247;28;20039;-85
2022/01/08 07:46:01;;;;;;;10.65;4.68;;;2.10;99.90;;;;;;5095612;27;20035;-85
2022/01/08 07:48:27;;;;;;;15.55;5.30;;;2.10;99.90;;;;;;5102160;27;20031;-86
2022/01/08 07:50:53;;;;;;;16.45;5.50;;;2.10;99.90;;;;;;5083658;28;20036;-86
2022/01/08 07:53:19;;;;;;;13.13;5.15;;;2.00;99.90;;;;;;5100293;27;20019;-86
2022/01/08 07:55:45;;;;;;;17.35;5.93;;;2.00;99.90;;;;;;5109853;27;20039;-86
2022/01/08 07:58:10;;;;;;;9.68;4.63;;;2.00;99.90;;;;;;5092216;28;20218;-86
2022/01/08 08:00:36;;;;;;;16.15;5.13;;;2.10;99.90;;;;;;5081366;27;20034;-86
2022/01/08 08:03:02;;;;;;;11.00;4.63;;;2.10;99.90;;;;;;5104049;27;20016;-86
2022/01/08 08:05:30;;;;;;;11.77;3.97;;;2.10;99.90;;;;;;5079187;27;20027;-86
2022/01/08 08:07:55;;;;;;;13.20;4.28;;;2.20;99.90;;;;;;5095109;27;20039;-86
2022/01/08 08:10:22;;;;;;;11.05;4.63;;;2.10;99.90;;;;;;5104545;27;20482;-86
2022/01/08 08:12:47;;;;;;;14.10;4.80;;;2.20;99.90;;;;;;5076809;28;20493;-85
2022/01/08 08:15:15;;;;;;;11.30;4.15;;;2.20;99.90;;;;;;5091337;28;20070;-85
2022/01/08 08:17:41;;;;;;;12.13;4.57;;;2.20;99.90;;;;;;5075250;27;20294;-86
2022/01/08 08:20:07;;;;;;;13.10;4.47;;;2.20;99.90;;;;;;5091559;28;20124;-86
2022/01/08 08:22:33;;;;;;;7.57;4.03;;;2.20;99.90;;;;;;5089878;28;20023;-86
2022/01/08 08:24:58;;;;;;;14.90;4.72;;;2.20;99.90;;;;;;5071481;28;21781;-86
2022/01/08 08:27:24;;;;;;;11.38;4.20;;;2.20;99.90;;;;;;5088919;27;20040;-85
2022/01/08 08:29:50;;;;;;;9.32;3.72;;;2.20;99.90;;;;;;5073432;28;20062;-86
2022/01/08 08:32:15;;;;;;;13.95;4.70;;;2.30;99.90;;;;;;5073667;28;20085;-86
2022/01/08 08:34:41;;;;;;;11.07;3.92;;;2.30;99.90;;;;;;5085375;28;20089;-84
2022/01/08 08:37:06;;;;;;;9.63;4.10;;;2.30;99.90;;;;;;5092234;28;20042;-86
2022/01/08 08:39:32;;;;;;;9.77;3.97;;;2.30;99.90;;;;;;5086030;28;20062;-86
2022/01/08 08:41:58;;;;;;;9.43;3.92;;;2.30;99.90;;;;;;5076144;28;20039;-86
2022/01/08 08:44:23;;;;;;;15.63;4.45;;;2.40;99.90;;;;;;5076634;28;20080;-88
2022/01/08 08:46:49;;;;;;;10.82;4.07;;;2.40;99.90;;;;;;5084896;28;20073;-86
2022/01/08 08:49:15;;;;;;;12.73;4.55;;;2.40;99.90;;;;;;5074604;28;20035;-84
2022/01/08 08:51:40;;;;;;;13.27;4.38;;;2.40;99.90;;;;;;5100281;28;20287;-84
2022/01/08 08:54:06;;;;;;;11.70;3.97;;;2.50;99.90;;;;;;5077068;28;20051;-86
2022/01/08 08:56:32;;;;;;;11.07;4.18;;;2.50;99.90;;;;;;5074536;28;20042;-86
2022/01/08 08:58:57;;;;;;;10.02;5.07;;;2.50;99.90;;;;;;5100125;28;20046;-86
2022/01/08 09:01:25;;;;;;;14.15;4.13;;;2.50;99.90;;;;;;5087868;28;20322;-85
2022/01/08 09:03:51;;;;;;;10.23;4.18;;;2.60;99.90;;;;;;5090017;28;20076;-85
2022/01/08 09:06:18;;;;;;;16.13;4.13;;;2.60;99.90;;;;;;5070262;28;20487;-85
2022/01/08 09:08:44;;;;;;;11.88;4.53;;;2.60;99.90;;;;;;5069503;28;20036;-85
2022/01/08 09:11:09;;;;;;;18.60;4.95;;;2.60;99.90;;;;;;5064412;28;20032;-86
2022/01/08 09:13:35;;;;;;;10.80;4.47;;;2.60;99.90;;;;;;5077783;28;20101;-84
2022/01/08 09:16:01;;;;;;;15.95;4.53;;;2.60;99.90;;;;;;5072990;28;20035;-83
2022/01/08 09:18:26;;;;;;;12.45;4.72;;;2.60;99.90;;;;;;5070387;28;20040;-85
2022/01/08 09:20:52;;;;;;;12.15;4.95;;;2.70;99.90;;;;;;5090872;27;20038;-85
2022/01/08 09:23:18;;;;;;;13.35;4.88;;;2.70;99.90;;;;;;5095790;27;20023;-85
2022/01/08 09:25:43;;;;;;;13.05;4.93;;;2.70;99.90;;;;;;5093831;28;20530;-85
2022/01/08 09:28:09;;;;;;;13.07;4.30;;;2.70;99.90;;;;;;5104390;27;20042;-85
2022/01/08 09:30:34;;;;;;;13.02;4.53;;;2.80;99.90;;;;;;5098500;27;20047;-85
2022/01/08 09:33:00;;;;;;;12.20;4.93;;;2.80;99.90;;;;;;5115473;27;20131;-85
2022/01/08 09:35:26;;;;;;;13.10;4.95;;;2.80;99.90;;;;;;5100812;28;20043;-85
2022/01/08 09:37:53;;;;;;;11.68;5.00;;;2.80;99.90;;;;;;5094435;28;20043;-85
2022/01/08 09:40:21;;;;;;;13.55;5.30;;;2.80;99.90;;;;;;5079114;27;20034;-85
2022/01/08 09:42:48;;;;;;;14.02;5.50;;;2.90;99.90;;;;;;5094058;27;20369;-85
2022/01/08 09:45:14;;;;;;;14.20;5.03;;;3.00;99.90;;;;;;5114606;27;20077;-85
2022/01/08 09:47:39;;;;;;;10.30;4.93;;;3.00;99.90;;;;;;5079259;27;20455;-86
2022/01/08 09:50:07;;;;;;;10.27;5.05;;;3.00;99.90;;;;;;5080126;27;20070;-85
2022/01/08 09:52:33;;;;;;;17.80;5.57;;;3.10;99.90;;;;;;5108126;27;20509;-85
2022/01/08 09:54:59;;;;;;;14.32;5.10;;;3.10;99.90;;;;;;5100669;28;20059;-85
2022/01/08 09:57:24;;;;;;;11.80;5.22;;;3.10;99.90;;;;;;5103303;28;20035;-85
2022/01/08 09:59:50;;;;;;;11.98;5.05;;;3.10;99.90;;;;;;5090529;28;20168;-85
2022/01/08 10:02:21;;;;;;;14.40;5.25;;;3.20;99.90;;;;;;5107453;28;20039;-86
2022/01/08 10:04:47;;;;;;;12.93;5.85;;;3.20;99.90;;;;;;5074187;28;20776;-86
2022/01/08 10:07:22;;;;;;;18.67;6.53;;;3.20;99.90;;;;;;5075659;28;20176;-85
2022/01/08 10:10:13;;;;;;;14.10;6.00;;;3.30;99.90;;;;;;5076392;27;20035;-84
2022/01/08 10:12:45;;;;;;;13.93;5.95;;;3.30;99.90;;;;;;5075476;28;20081;-85
2022/01/08 10:17:58;;;;;;;;;;;3.30;99.90;;;;;;5088434;28;20481;-89
2022/01/08 10:20:36;;;;;;;13.00;7.25;;;3.30;99.90;;;;;;5093737;27;19927;-85
2022/01/08 10:23:14;;;;;;;19.50;6.93;;;3.30;99.90;;;;;;5084659;28;20508;-85
2022/01/08 10:26:10;;;;;;;14.05;7.72;;;3.30;99.90;;;;;;5093187;28;20500;-85
2022/01/08 10:28:42;;;;;;;13.25;7.70;;;3.40;99.90;;;;;;5094528;27;20063;-85
2022/01/08 10:31:22;;;;;;;18.35;8.35;;;3.40;99.90;;;;;;5110493;28;20036;-85
2022/01/08 10:33:54;;;;;;;21.42;8.00;;;3.40;99.90;;;;;;5079801;27;20113;-85
2022/01/08 10:36:32;;;;;;;15.38;7.95;;;3.50;99.90;;;;;;5130840;27;20489;-85
2022/01/08 10:39:00;;;;;;;15.98;7.68;;;3.40;99.90;;;;;;5091646;28;20048;-85
2022/01/08 10:41:27;;;;;;;17.65;8.55;;;3.40;99.90;;;;;;5093264;28;20051;-85
2022/01/08 10:44:06;;;;;;;19.55;8.18;;;3.50;99.90;;;;;;5069596;28;20032;-85
2022/01/08 10:46:33;;;;;;;15.70;8.65;;;3.50;99.90;;;;;;5061846;28;20051;-84
2022/01/08 10:48:59;;;;;;;16.05;8.52;;;3.50;99.90;;;;;;5087102;28;20131;-86
2022/01/08 10:51:26;;;;;;;22.85;11.63;;;3.50;99.90;;;;;;5070161;28;20482;-86
2022/01/08 10:53:59;;;;;;;20.83;9.27;;;3.60;99.90;;;;;;5070958;28;20084;-85
2022/01/08 10:56:31;;;;;;;22.48;12.82;;;3.50;99.90;;;;;;5074581;28;20083;-86
2022/01/08 10:59:03;;;;;;;17.02;9.18;;;3.60;99.90;;;;;;5090784;28;20048;-85
2022/01/08 11:01:44;;;;;;;17.80;9.30;;;3.60;99.90;;;;;;5075601;28;20489;-86
2022/01/08 11:04:15;;;;;;;19.05;9.38;;;3.60;99.90;;;;;;5091354;27;20553;-82
2022/01/08 11:07:02;;;;;;;19.60;12.13;;;3.60;99.90;;;;;;5101369;28;20051;-85
2022/01/08 11:09:28;;;;;;;20.08;11.05;;;3.70;99.90;;;;;;5082449;28;20396;-86
2022/01/08 11:11:57;;;;;;;20.38;10.43;;;3.70;99.90;;;;;;5090852;27;20031;-85
2022/01/08 11:17:16;;;;;;;19.30;10.57;;;3.70;99.90;;;;;;5086622;28;20489;-85
2022/01/08 11:19:44;;;;;;;24.48;14.70;;;3.80;99.90;;;;;;5074955;28;20880;-85
2022/01/08 11:22:13;;;;;;;20.15;10.55;;;3.80;99.90;;;;;;5094473;28;20480;-85
2022/01/08 11:24:50;;;;;;;16.55;8.75;;;3.80;99.90;;;;;;5084936;28;20040;-84
2022/01/08 11:27:20;;;;;;;17.25;9.52;;;3.80;99.90;;;;;;5069953;28;20042;-84
2022/01/08 11:29:54;;;;;;;18.67;9.63;;;3.80;99.90;;;;;;5071353;28;20059;-87
2022/01/08 11:32:21;;;;;;;27.30;10.65;;;3.80;99.90;;;;;;5070338;28;20424;-85
2022/01/08 11:34:47;;;;;;;16.48;7.82;;;3.90;99.90;;;;;;5083802;28;20542;-85
2022/01/08 11:37:14;;;;;;;18.80;9.77;;;3.90;99.90;;;;;;5072132;28;20440;-83
2022/01/08 11:39:43;;;;;;;18.75;10.25;;;4.00;99.90;;;;;;5071257;28;20079;-84
2022/01/08 11:42:11;;;;;;;18.25;9.75;;;3.90;99.90;;;;;;5070651;28;20552;-85
2022/01/08 11:44:37;;;;;;;15.35;8.63;;;4.00;99.90;;;;;;5081997;28;20745;-85
2022/01/08 11:47:04;;;;;;;21.05;8.40;;;4.00;99.90;;;;;;5086358;28;20437;-85
2022/01/08 11:49:30;;;;;;;18.30;8.55;;;4.00;99.90;;;;;;5073669;28;20031;-85
2022/01/08 11:52:19;;;;;;;18.05;8.07;;;4.10;99.90;;;;;;5086148;28;20039;-85
2022/01/08 11:54:47;;;;;;;18.42;9.23;;;4.10;99.90;;;;;;5087058;28;20039;-84
2022/01/08 11:57:20;;;;;;;20.98;8.82;;;4.10;99.90;;;;;;5068090;28;20047;-84
2022/01/08 11:59:46;;;;;;;15.77;8.35;;;4.20;99.90;;;;;;5070180;27;20043;-86
2022/01/08 12:02:13;;;;;;;23.02;10.18;;;4.20;99.90;;;;;;5070218;28;20451;-86
2022/01/08 12:04:41;;;;;;;17.00;9.48;;;4.20;99.90;;;;;;5088517;28;20040;-85
2022/01/08 12:07:26;;;;;;;14.38;9.55;;;4.30;99.90;;;;;;5072451;28;20071;-86
2022/01/08 12:10:22;;;;;;;21.90;9.65;;;4.30;99.90;;;;;;5105847;28;20290;-85
2022/01/08 12:12:48;;;;;;;;;;;4.30;99.90;;;;;;5079130;27;20532;-86
2022/01/08 12:15:15;;;;;;;20.65;10.55;;;4.40;99.90;;;;;;5099991;27;20014;-86
2022/01/08 12:17:55;;;;;;;21.00;11.38;;;4.40;99.90;;;;;;5094047;27;20333;-86
2022/01/08 12:20:47;;;;;;;24.52;11.63;;;4.50;99.90;;;;;;5094375;27;20035;-86
2022/01/08 12:23:26;;;;;;;22.05;11.77;;;4.50;99.90;;;;;;5094387;27;20092;-86
2022/01/08 12:25:52;;;;;;;22.85;12.60;;;4.50;99.90;;;;;;5106535;27;20039;-86
2022/01/08 12:28:45;;;;;;;22.35;11.93;;;4.50;99.90;;;;;;5110980;27;20035;-85
2022/01/08 12:31:37;;;;;;;23.42;13.05;;;4.50;99.90;;;;;;5094848;27;20039;-86
2022/01/08 12:34:25;;;;;;;25.95;15.15;;;4.50;99.90;;;;;;5090772;28;20035;-86
2022/01/08 12:36:55;;;;;;;24.42;13.27;;;4.50;99.90;;;;;;5092631;28;20046;-86
2022/01/08 12:39:48;;;;;;;23.27;14.52;;;4.50;99.90;;;;;;5091477;28;20405;-86
2022/01/08 12:42:20;;;;;;;24.13;14.52;;;4.50;99.90;;;;;;5086110;28;20031;-86
2022/01/08 12:45:02;;;;;;;26.83;14.55;;;4.50;99.90;;;;;;5094829;28;20034;-86
2022/01/08 12:47:47;;;;;;;24.15;14.18;;;4.50;99.90;;;;;;5110804;28;20047;-86
2022/01/08 12:50:16;;;;;;;27.85;15.57;;;4.50;99.90;;;;;;5092146;28;20043;-86
2022/01/08 12:53:07;;;;;;;23.25;13.65;;;4.40;99.90;;;;;;5081342;28;20387;-85
2022/01/08 12:55:34;;;;;;;23.38;14.70;;;4.50;99.90;;;;;;5086848;28;20043;-85
2022/01/08 12:58:00;;;;;;;28.15;15.50;;;4.50;99.90;;;;;;5089622;28;20067;-85
2022/01/08 13:00:26;;;;;;;23.42;15.30;;;4.40;99.90;;;;;;5075533;28;20060;-85
2022/01/08 13:02:52;;;;;;;26.80;15.05;;;4.50;99.90;;;;;;5065200;28;20034;-87
2022/01/08 13:05:19;;;;;;;27.60;16.33;;;4.50;99.90;;;;;;5073298;28;20027;-86
2022/01/08 13:07:52;;;;;;;25.70;17.05;;;4.40;99.90;;;;;;5071958;28;20039;-86
2022/01/08 13:10:19;;;;;;;27.67;16.77;;;4.40;99.90;;;;;;5086504;28;20067;-86
2022/01/08 13:13:04;;;;;;;25.70;17.67;;;4.40;99.90;;;;;;5075762;28;20518;-85
2022/01/08 13:15:33;;;;;;;28.77;17.70;;;4.50;99.90;;;;;;5109065;28;20057;-86